Time;durP1;ratioP1;P1;durP2;ratioP2;P2;SDS_P1;SDS_P2;PMS_P1;PMS_P2;Temp;Humidity;BMP_temperature;BMP_pressure;BME280_temperature;BME280_humidity;BME280_pressure;Samples;Min_cycle;Max_cycle;Signal;HPM_P1;HPM_P2
2023/04/23 00:00:39;;;;;;;;;1.67;1.67;;;;;-147.47;100.00;64613.53;5103286;27;44912;-80
2023/04/23 00:03:08;;;;;;;;;3.67;1.00;;;;;-147.47;100.00;64613.53;5110272;27;45044;-82
2023/04/23 00:05:36;;;;;;;;;3.00;1.67;;;;;-147.47;100.00;64613.53;5106835;27;45472;-80
2023/04/23 00:08:02;;;;;;;;;3.33;2.00;;;;;-147.47;100.00;64613.53;5107255;27;45285;-81
2023/04/23 00:10:28;;;;;;;;;2.33;1.00;;;;;-147.47;100.00;64613.53;5100839;27;45728;-81
2023/04/23 00:12:53;;;;;;;;;1.00;1.00;;;;;-147.47;100.00;64613.53;5108382;27;45485;-80
2023/04/23 00:15:22;;;;;;;;;5.00;2.67;;;;;-147.47;100.00;64613.53;5070767;28;46986;-82
2023/04/23 00:17:48;;;;;;;;;5.67;2.00;;;;;-147.47;100.00;64613.53;5096866;27;45348;-82
2023/04/23 00:20:15;;;;;;;;;2.00;1.33;;;;;-147.47;100.00;64613.53;5080481;27;45527;-80
2023/04/23 00:22:41;;;;;;;;;5.00;1.67;;;;;-147.47;100.00;64613.53;5107781;27;45527;-81
2023/04/23 00:25:07;;;;;;;;;3.00;3.00;;;;;-147.47;100.00;64613.53;5108014;27;45155;-80
2023/04/23 00:27:33;;;;;;;;;2.00;1.33;;;;;-147.47;100.00;64613.53;5108050;27;44790;-81
2023/04/23 00:29:59;;;;;;;;;3.00;1.67;;;;;-147.47;100.00;64613.53;5104186;27;45420;-79
2023/04/23 00:32:24;;;;;;;;;2.00;2.00;;;;;-147.47;100.00;64613.53;5104161;27;45188;-83
2023/04/23 00:34:50;;;;;;;;;3.00;3.00;;;;;-147.47;100.00;64613.53;5089332;27;47089;-80
2023/04/23 00:37:16;;;;;;;;;3.00;1.00;;;;;-147.47;100.00;64613.53;5077823;27;45348;-81
2023/04/23 00:39:42;;;;;;;;;3.67;3.00;;;;;-147.47;100.00;64613.53;5106385;27;45750;-81
2023/04/23 00:42:12;;;;;;;;;2.00;0.67;;;;;-147.47;100.00;64613.53;5105751;27;44802;-80
2023/04/23 00:44:39;;;;;;;;;3.67;1.00;;;;;-147.47;100.00;64613.53;5103009;27;45291;-80
2023/04/23 00:47:06;;;;;;;;;6.00;3.00;;;;;-147.47;100.00;64613.53;5105929;27;45324;-79
2023/04/23 00:49:33;;;;;;;;;2.50;1.50;;;;;-147.47;100.00;64613.53;5106552;27;45647;-80
2023/04/23 00:51:59;;;;;;;;;3.00;2.33;;;;;-147.47;100.00;64613.53;5109628;27;45420;-80
2023/04/23 00:54:25;;;;;;;;;1.67;1.33;;;;;-147.47;100.00;64613.53;5100034;27;45396;-80
2023/04/23 00:56:52;;;;;;;;;2.33;2.33;;;;;-147.47;100.00;64613.53;5104270;27;45448;-80
2023/04/23 00:59:19;;;;;;;;;2.33;1.67;;;;;-147.47;100.00;64613.53;5098310;27;45034;-82
2023/04/23 01:01:45;;;;;;;;;4.00;1.33;;;;;-147.47;100.00;64613.53;5107951;27;45193;-82
2023/04/23 01:04:16;;;;;;;;;3.33;3.33;;;;;-147.47;100.00;64613.53;5109346;27;45391;-81
2023/04/23 01:06:42;;;;;;;;;1.67;1.67;;;;;-147.47;100.00;64613.53;5107705;27;45433;-82
2023/04/23 01:09:08;;;;;;;;;6.67;3.00;;;;;-147.47;100.00;64613.53;5111589;27;45441;-79
2023/04/23 01:11:42;;;;;;;;;4.00;2.00;;;;;-147.47;100.00;64613.53;5092359;28;45645;-80
2023/04/23 01:14:09;;;;;;;;;3.00;1.67;;;;;-147.47;100.00;64613.53;5105955;27;45351;-81
2023/04/23 01:16:37;;;;;;;;;2.00;2.00;;;;;-147.47;100.00;64613.53;5096562;27;46106;-79
2023/04/23 01:19:06;;;;;;;;;4.00;2.33;;;;;-147.47;100.00;64613.53;5103722;27;45794;-80
2023/04/23 01:21:34;;;;;;;;;1.67;0.67;;;;;-147.47;100.00;64613.53;5115257;27;44751;-81
2023/04/23 01:24:04;;;;;;;;;2.33;0.67;;;;;-147.47;100.00;64613.53;5096481;27;46370;-78
2023/04/23 01:26:29;;;;;;;;;2.33;1.00;;;;;-147.47;100.00;64613.53;5112619;27;44772;-79
2023/04/23 01:28:56;;;;;;;;;2.67;1.67;;;;;-147.47;100.00;64613.53;5094989;27;45529;-80
2023/04/23 01:31:24;;;;;;;;;4.00;3.00;;;;;-147.47;100.00;64613.53;5110403;27;45358;-80
2023/04/23 01:33:52;;;;;;;;;2.33;1.67;;;;;-147.47;100.00;64613.53;5109514;27;45375;-78
2023/04/23 01:36:19;;;;;;;;;2.67;2.00;;;;;-147.47;100.00;64613.53;5114254;27;45443;-80
2023/04/23 01:38:45;;;;;;;;;3.33;2.33;;;;;-147.47;100.00;64613.53;5115437;27;44793;-80
2023/04/23 01:41:12;;;;;;;;;6.67;3.33;;;;;-147.47;100.00;64613.53;5113645;27;45831;-80
2023/04/23 01:43:40;;;;;;;;;2.33;1.67;;;;;-147.47;100.00;64613.53;5102877;27;45102;-78
2023/04/23 01:46:06;;;;;;;;;3.67;2.00;;;;;-147.47;100.00;64613.53;5106705;27;44879;-79
2023/04/23 01:48:32;;;;;;;;;2.67;1.00;;;;;-147.47;100.00;64613.53;5101501;27;44891;-80
2023/04/23 01:50:57;;;;;;;;;2.67;2.33;;;;;-147.47;100.00;64613.53;5113954;27;44966;-80
2023/04/23 01:53:23;;;;;;;;;2.00;2.00;;;;;-147.47;100.00;64613.53;5114458;27;45130;-80
2023/04/23 01:55:51;;;;;;;;;1.33;1.33;;;;;-147.47;100.00;64613.53;5087127;27;44875;-80
2023/04/23 01:58:18;;;;;;;;;1.67;1.67;;;;;-147.47;100.00;64613.53;5081209;28;44835;-81
2023/04/23 02:00:43;;;;;;;;;5.00;3.33;;;;;-147.47;100.00;64613.53;5092736;27;45802;-79
2023/04/23 02:03:09;;;;;;;;;1.67;1.67;;;;;-147.47;100.00;64613.53;5109036;27;45116;-82
2023/04/23 02:05:35;;;;;;;;;1.67;1.67;;;;;-147.47;100.00;64613.53;5110249;27;44772;-80
2023/04/23 02:08:02;;;;;;;;;4.67;3.67;;;;;-147.47;100.00;64613.53;5107698;27;44746;-82
2023/04/23 02:10:29;;;;;;;;;4.00;2.00;;;;;-147.47;100.00;64613.53;5095839;27;45438;-80
2023/04/23 02:12:57;;;;;;;;;3.00;1.67;;;;;-147.47;100.00;64613.53;5113688;27;46646;-81
2023/04/23 02:15:23;;;;;;;;;2.00;2.00;;;;;-147.47;100.00;64613.53;5090964;27;45450;-81
2023/04/23 02:17:52;;;;;;;;;2.67;2.67;;;;;-147.47;100.00;64613.53;5103212;27;45159;-81
2023/04/23 02:20:19;;;;;;;;;3.00;2.00;;;;;-147.47;100.00;64613.53;5093098;27;45480;-80
2023/04/23 02:22:46;;;;;;;;;3.33;2.00;;;;;-147.47;100.00;64613.53;5108375;27;45734;-83
2023/04/23 02:25:14;;;;;;;;;3.33;2.00;;;;;-147.47;100.00;64613.53;5092878;28;45352;-81
2023/04/23 02:27:43;;;;;;;;;2.00;2.00;;;;;-147.47;100.00;64613.53;5088823;27;45286;-81
2023/04/23 02:30:11;;;;;;;;;6.00;3.67;;;;;-147.47;100.00;64613.53;5108368;27;44971;-81
2023/04/23 02:32:39;;;;;;;;;4.00;1.33;;;;;-147.47;100.00;64613.53;5084205;27;45603;-82
2023/04/23 02:35:05;;;;;;;;;3.67;2.00;;;;;-147.47;100.00;64613.53;5109264;27;45341;-80
2023/04/23 02:37:34;;;;;;;;;5.00;2.00;;;;;-147.47;100.00;64613.53;5082560;27;44737;-79
2023/04/23 02:40:00;;;;;;;;;3.00;2.67;;;;;-147.47;100.00;64613.53;5113236;27;45532;-82
2023/04/23 02:42:26;;;;;;;;;2.33;1.00;;;;;-147.47;100.00;64613.53;5099157;27;45253;-82
2023/04/23 02:44:51;;;;;;;;;2.67;2.67;;;;;-147.47;100.00;64613.53;5113548;27;45759;-81
2023/04/23 02:47:17;;;;;;;;;4.00;2.00;;;;;-147.47;100.00;64613.53;5098698;27;45462;-80
2023/04/23 02:49:42;;;;;;;;;6.67;1.67;;;;;-147.47;100.00;64613.53;5110006;27;45768;-79
2023/04/23 02:52:08;;;;;;;;;5.67;2.67;;;;;-147.47;100.00;64613.53;5098366;27;46663;-80
2023/04/23 02:54:35;;;;;;;;;2.67;2.67;;;;;-147.47;100.00;64613.53;5110618;27;45351;-79
2023/04/23 02:57:01;;;;;;;;;6.00;3.00;;;;;-147.47;100.00;64613.53;5088860;28;45351;-80
2023/04/23 02:59:28;;;;;;;;;3.67;2.00;;;;;-147.47;100.00;64613.53;5090651;28;45392;-80
2023/04/23 03:01:53;;;;;;;;;2.00;2.00;;;;;-147.47;100.00;64613.53;5098561;27;45498;-79
2023/04/23 03:04:19;;;;;;;;;2.67;2.33;;;;;-147.47;100.00;64613.53;5091550;28;45851;-80
2023/04/23 03:06:45;;;;;;;;;5.00;2.00;;;;;-147.47;100.00;64613.53;5107074;27;45479;-80
2023/04/23 03:09:11;;;;;;;;;1.33;1.33;;;;;-147.47;100.00;64613.53;5112119;27;45468;-80
2023/04/23 03:11:37;;;;;;;;;3.67;2.00;;;;;-147.47;100.00;64613.53;5103814;27;45443;-79
2023/04/23 03:14:02;;;;;;;;;5.00;4.00;;;;;-147.47;100.00;64613.53;5106716;27;45457;-79
2023/04/23 03:16:30;;;;;;;;;5.00;4.00;;;;;-147.47;100.00;64613.53;5091208;27;45885;-82
2023/04/23 03:18:55;;;;;;;;;4.67;3.00;;;;;-147.47;100.00;64613.53;5096677;27;45369;-81
2023/04/23 03:21:21;;;;;;;;;3.67;3.67;;;;;-147.47;100.00;64613.53;5112755;27;45654;-82
2023/04/23 03:23:47;;;;;;;;;4.00;4.00;;;;;-147.47;100.00;64613.53;5083876;27;46091;-80
2023/04/23 03:26:12;;;;;;;;;4.67;4.67;;;;;-147.47;100.00;64613.53;5103518;27;45409;-79
2023/04/23 03:28:37;;;;;;;;;2.33;2.33;;;;;-147.47;100.00;64613.53;5104321;27;45347;-81
2023/04/23 03:31:03;;;;;;;;;3.67;3.00;;;;;-147.47;100.00;64613.53;5074386;28;45821;-80
2023/04/23 03:33:29;;;;;;;;;4.67;3.00;;;;;-147.47;100.00;64613.53;5105670;27;45509;-81
2023/04/23 03:35:54;;;;;;;;;4.00;3.00;;;;;-147.47;100.00;64613.53;5108707;27;45511;-81
2023/04/23 03:38:20;;;;;;;;;4.00;2.67;;;;;-147.47;100.00;64613.53;5095132;27;45642;-82
2023/04/23 03:40:45;;;;;;;;;2.33;2.00;;;;;-147.47;100.00;64613.53;5105673;27;45873;-80
2023/04/23 03:43:11;;;;;;;;;5.00;3.00;;;;;-147.47;100.00;64613.53;5087612;27;45398;-81
2023/04/23 03:45:37;;;;;;;;;5.67;4.67;;;;;-147.47;100.00;64613.53;5085531;27;45411;-81
2023/04/23 03:48:03;;;;;;;;;6.00;5.00;;;;;-147.47;100.00;64613.53;5108531;27;46379;-79
2023/04/23 03:50:33;;;;;;;;;5.33;3.00;;;;;-147.47;100.00;64613.53;5097376;27;45410;-81
2023/04/23 03:53:01;;;;;;;;;3.00;3.00;;;;;-147.47;100.00;64613.53;5112734;27;45408;-81
2023/04/23 03:55:27;;;;;;;;;6.67;3.67;;;;;-147.47;100.00;64613.53;5114400;27;45505;-81
2023/04/23 03:57:52;;;;;;;;;5.67;4.33;;;;;-147.47;100.00;64613.53;5112821;27;44683;-81
2023/04/23 04:00:21;;;;;;;;;2.00;2.00;;;;;-147.47;100.00;64613.53;5109644;27;45381;-81
2023/04/23 04:02:46;;;;;;;;;4.00;3.00;;;;;-147.47;100.00;64613.53;5112909;27;45352;-80
2023/04/23 04:05:12;;;;;;;;;4.33;3.00;;;;;-147.47;100.00;64613.53;5099140;27;44834;-81
2023/04/23 04:07:42;;;;;;;;;2.33;2.33;;;;;-147.47;100.00;64613.53;5105280;27;45477;-81
2023/04/23 04:10:13;;;;;;;;;2.33;2.33;;;;;-147.47;100.00;64613.53;5104732;27;45043;-80
2023/04/23 04:12:40;;;;;;;;;4.67;3.00;;;;;-147.47;100.00;64613.53;5107075;27;45332;-80
2023/04/23 04:15:06;;;;;;;;;4.67;2.67;;;;;-147.47;100.00;64613.53;5094388;27;45432;-81
2023/04/23 04:17:32;;;;;;;;;4.33;2.00;;;;;-147.47;100.00;64613.53;5105062;27;45277;-83
2023/04/23 04:20:01;;;;;;;;;6.33;2.33;;;;;-147.47;100.00;64613.53;5091555;27;45873;-83
2023/04/23 04:22:28;;;;;;;;;4.67;2.67;;;;;-147.47;100.00;64613.53;5116743;27;45404;-83
2023/04/23 04:24:55;;;;;;;;;3.33;3.00;;;;;-147.47;100.00;64613.53;5109876;27;45194;-80
2023/04/23 04:27:20;;;;;;;;;4.00;2.67;;;;;-147.47;100.00;64613.53;5114230;27;45591;-80
2023/04/23 04:29:47;;;;;;;;;2.33;2.33;;;;;-147.47;100.00;64613.53;5083778;27;47205;-82
2023/04/23 04:32:15;;;;;;;;;4.00;4.00;;;;;-147.47;100.00;64613.53;5116522;27;45142;-81
2023/04/23 04:34:41;;;;;;;;;4.00;3.67;;;;;-147.47;100.00;64613.53;5100190;27;45439;-82
2023/04/23 04:37:08;;;;;;;;;6.33;3.33;;;;;-147.47;100.00;64613.53;5101159;27;45890;-82
2023/04/23 04:39:34;;;;;;;;;5.67;2.67;;;;;-147.47;100.00;64613.53;5114000;27;45483;-81
2023/04/23 04:42:01;;;;;;;;;6.33;3.33;;;;;-147.47;100.00;64613.53;5096372;27;45378;-82
2023/04/23 04:44:27;;;;;;;;;3.00;3.00;;;;;-147.47;100.00;64613.53;5101889;27;45400;-81
2023/04/23 04:46:53;;;;;;;;;5.00;2.67;;;;;-147.47;100.00;64613.53;5114767;27;45495;-81
2023/04/23 04:49:18;;;;;;;;;4.00;4.00;;;;;-147.47;100.00;64613.53;5112515;27;45563;-80
2023/04/23 04:51:45;;;;;;;;;5.00;3.00;;;;;-147.47;100.00;64613.53;5101462;27;44670;-80
2023/04/23 04:54:10;;;;;;;;;6.33;4.67;;;;;-147.47;100.00;64613.53;5097500;27;45718;-81
2023/04/23 04:56:36;;;;;;;;;3.00;3.00;;;;;-147.47;100.00;64613.53;5098776;27;45417;-81
2023/04/23 04:59:02;;;;;;;;;4.00;4.00;;;;;-147.47;100.00;64613.53;5090730;27;45375;-80
2023/04/23 05:01:28;;;;;;;;;3.67;3.33;;;;;-147.47;100.00;64613.53;5092088;27;44792;-81
2023/04/23 05:03:55;;;;;;;;;6.00;4.00;;;;;-147.47;100.00;64613.53;5074199;27;45955;-80
2023/04/23 05:06:21;;;;;;;;;6.00;3.33;;;;;-147.47;100.00;64613.53;5078360;27;46100;-81
2023/04/23 05:08:47;;;;;;;;;3.00;3.00;;;;;-147.47;100.00;64613.53;5088598;27;45759;-80
2023/04/23 05:11:16;;;;;;;;;3.33;3.33;;;;;-147.47;100.00;64613.53;5097734;27;45372;-81
2023/04/23 05:13:43;;;;;;;;;5.33;3.67;;;;;-147.47;100.00;64613.53;5085354;27;45478;-80
2023/04/23 05:16:10;;;;;;;;;6.67;3.00;;;;;-147.47;100.00;64613.53;5091321;27;45631;-82
2023/04/23 05:18:36;;;;;;;;;2.67;2.67;;;;;-147.47;100.00;64613.53;5089531;27;47014;-82
2023/04/23 05:21:02;;;;;;;;;5.67;3.00;;;;;-147.47;100.00;64613.53;5071503;27;45850;-82
2023/04/23 05:23:27;;;;;;;;;8.67;5.00;;;;;-147.47;100.00;64613.53;5094375;27;45647;-81
2023/04/23 05:25:55;;;;;;;;;6.67;3.33;;;;;-147.47;100.00;64613.53;5107327;27;45663;-81
2023/04/23 05:28:21;;;;;;;;;4.00;2.00;;;;;-147.47;100.00;64613.53;5089060;27;45414;-83
2023/04/23 05:30:46;;;;;;;;;3.33;2.33;;;;;-147.47;100.00;64613.53;5065133;27;45648;-82
2023/04/23 05:33:12;;;;;;;;;2.33;2.33;;;;;-147.47;100.00;64613.53;5089594;27;45523;-80
2023/04/23 05:35:37;;;;;;;;;4.33;3.33;;;;;-147.47;100.00;64613.53;5079968;27;45942;-82
2023/04/23 05:38:05;;;;;;;;;4.00;2.00;;;;;-147.47;100.00;64613.53;5087981;27;46644;-81
2023/04/23 05:40:38;;;;;;;;;5.33;2.67;;;;;-147.47;100.00;64613.53;5094198;27;45835;-85
2023/04/23 05:43:03;;;;;;;;;2.00;2.00;;;;;-147.47;100.00;64613.53;5093194;27;45907;-82
2023/04/23 05:45:29;;;;;;;;;4.00;2.67;;;;;-147.47;100.00;64613.53;5083837;27;45730;-81
2023/04/23 05:47:54;;;;;;;;;2.67;1.67;;;;;-147.47;100.00;64613.53;5069932;27;45392;-80
2023/04/23 05:50:20;;;;;;;;;1.00;1.00;;;;;-147.47;100.00;64613.53;5089693;27;45511;-83
2023/04/23 05:52:46;;;;;;;;;3.00;3.00;;;;;-147.47;100.00;64613.53;5073607;27;45799;-79
2023/04/23 05:55:14;;;;;;;;;3.67;2.67;;;;;-147.47;100.00;64613.53;5085353;27;46294;-78
2023/04/23 05:57:41;;;;;;;;;3.33;3.00;;;;;-147.47;100.00;64613.53;5091743;27;45715;-76
2023/04/23 06:00:13;;;;;;;;;2.00;2.00;;;;;-147.47;100.00;64613.53;5071614;27;45883;-79
2023/04/23 06:02:40;;;;;;;;;4.33;4.33;;;;;-147.47;100.00;64613.53;5060634;27;45496;-82
2023/04/23 06:05:06;;;;;;;;;3.67;2.00;;;;;-147.47;100.00;64613.53;5064968;27;46692;-81
2023/04/23 06:07:32;;;;;;;;;2.33;2.33;;;;;-147.47;100.00;64613.53;5071696;27;46792;-81
2023/04/23 06:09:58;;;;;;;;;1.67;1.67;;;;;-147.47;100.00;64613.53;5066058;27;46794;-79
2023/04/23 06:12:23;;;;;;;;;3.00;3.00;;;;;-147.47;100.00;64613.53;5088988;27;45752;-80
2023/04/23 06:14:54;;;;;;;;;2.00;2.00;;;;;-147.47;100.00;64613.53;5091236;27;45857;-80
2023/04/23 06:17:19;;;;;;;;;1.00;1.00;;;;;-147.47;100.00;64613.53;5090355;27;45473;-80
2023/04/23 06:19:45;;;;;;;;;3.00;2.67;;;;;-147.47;100.00;64613.53;5088463;27;45961;-80
2023/04/23 06:22:10;;;;;;;;;2.67;2.67;;;;;-147.47;100.00;64613.53;5090514;27;45437;-80
2023/04/23 06:24:36;;;;;;;;;5.00;3.00;;;;;-147.47;100.00;64613.53;5095947;27;45605;-82
2023/04/23 06:27:01;;;;;;;;;2.67;2.67;;;;;-147.47;100.00;64613.53;5073813;27;46392;-82
2023/04/23 06:29:27;;;;;;;;;114.75;98.00;;;;;-147.47;100.00;64613.53;5073434;27;45929;-81
2023/04/23 06:31:56;;;;;;;;;37.00;29.67;;;;;-147.47;100.00;64613.53;5092899;27;45951;-79
2023/04/23 06:34:22;;;;;;;;;8.33;8.33;;;;;-147.47;100.00;64613.53;5092267;27;45908;-81
2023/04/23 06:36:49;;;;;;;;;18.33;11.33;;;;;-147.47;100.00;64613.53;5071334;27;46244;-79
2023/04/23 06:39:14;;;;;;;;;6.33;5.33;;;;;-147.47;100.00;64613.53;5094835;27;45452;-80
2023/04/23 06:41:40;;;;;;;;;4.67;4.67;;;;;-147.47;100.00;64613.53;5089955;27;45401;-83
2023/04/23 06:44:06;;;;;;;;;4.33;3.67;;;;;-147.47;100.00;64613.53;5079684;27;45545;-80
2023/04/23 06:46:31;;;;;;;;;3.67;1.67;;;;;-147.47;100.00;64613.53;5091241;27;45969;-82
2023/04/23 06:48:57;;;;;;;;;6.33;3.67;;;;;-147.47;100.00;64613.53;5070459;27;46853;-81
2023/04/23 06:51:25;;;;;;;;;3.00;2.33;;;;;-147.47;100.00;64613.53;5090287;27;45493;-82
2023/04/23 06:53:51;;;;;;;;;4.00;4.00;;;;;-147.47;100.00;64613.53;5094693;27;45497;-81
2023/04/23 06:56:17;;;;;;;;;6.50;5.00;;;;;-147.47;100.00;64613.53;5073358;27;47242;-80
2023/04/23 06:58:42;;;;;;;;;6.67;6.00;;;;;-147.47;100.00;64613.53;5074804;27;45735;-81
2023/04/23 07:01:09;;;;;;;;;3.67;3.67;;;;;-147.47;100.00;64613.53;5078999;27;45818;-80
2023/04/23 07:03:35;;;;;;;;;3.33;3.33;;;;;-147.47;100.00;64613.53;5069657;27;46110;-82
2023/04/23 07:06:03;;;;;;;;;4.33;4.33;;;;;-147.47;100.00;64613.53;5099388;27;45588;-82
2023/04/23 07:08:29;;;;;;;;;5.00;4.00;;;;;-147.47;100.00;64613.53;5079605;27;45520;-81
2023/04/23 07:10:54;;;;;;;;;8.00;6.67;;;;;-147.47;100.00;64613.53;5094439;27;45492;-80
2023/04/23 07:13:20;;;;;;;;;7.33;5.33;;;;;-147.47;100.00;64613.53;5083932;27;45903;-80
2023/04/23 07:15:46;;;;;;;;;7.67;6.33;;;;;-147.47;100.00;64613.53;5086373;27;46848;-79
2023/04/23 07:18:11;;;;;;;;;6.00;6.00;;;;;-147.47;100.00;64613.53;5079946;27;45797;-80
2023/04/23 07:20:37;;;;;;;;;0.00;0.00;;;;;-147.47;100.00;64613.53;5075146;27;45492;-79
2023/04/23 07:23:04;;;;;;;;;5.00;5.00;;;;;-147.47;100.00;64613.53;5086498;27;46143;-75
2023/04/23 07:25:30;;;;;;;;;5.00;5.00;;;;;-147.47;100.00;64613.53;5082757;27;46650;-77
2023/04/23 07:27:55;;;;;;;;;4.33;4.33;;;;;-147.47;100.00;64613.53;5084331;27;45623;-76
2023/04/23 07:30:22;;;;;;;;;6.00;6.00;;;;;-147.47;100.00;64613.53;5064882;27;45865;-75
2023/04/23 07:32:48;;;;;;;;;5.67;4.33;;;;;-147.47;100.00;64613.53;5083522;27;45756;-77
2023/04/23 07:35:46;;;;;;;;;5.67;5.33;;;;;-147.47;100.00;64613.53;5088727;27;45704;-76
2023/04/23 07:38:08;;;;;;;;;8.33;7.67;;;;;-147.47;100.00;64613.53;5083494;27;45643;-77
2023/04/23 07:40:35;;;;;;;;;4.67;4.67;;;;;-147.47;100.00;64613.53;5086630;27;45514;-76
2023/04/23 07:43:01;;;;;;;;;6.67;6.00;;;;;-147.47;100.00;64613.53;5083363;27;47175;-77
2023/04/23 07:45:27;;;;;;;;;7.00;7.00;;;;;-147.47;100.00;64613.53;5083500;27;47080;-80
2023/04/23 07:47:52;;;;;;;;;11.00;6.00;;;;;-147.47;100.00;64613.53;5082041;27;45766;-78
2023/04/23 07:50:18;;;;;;;;;6.67;6.67;;;;;-147.47;100.00;64613.53;5086525;27;45437;-78
2023/04/23 07:52:47;;;;;;;;;7.33;7.33;;;;;-147.47;100.00;64613.53;5081805;27;45828;-79
2023/04/23 07:55:14;;;;;;;;;12.00;10.33;;;;;-147.47;100.00;64613.53;5084951;27;46217;-78
2023/04/23 07:57:39;;;;;;;;;9.00;7.33;;;;;-147.47;100.00;64613.53;5073972;27;45519;-78
2023/04/23 08:00:08;;;;;;;;;10.00;9.00;;;;;-147.47;100.00;64613.53;5087078;27;45829;-78
2023/04/23 08:02:51;;;;;;;;;14.33;9.00;;;;;-147.47;100.00;64613.53;5093975;27;45142;-80
2023/04/23 08:05:16;;;;;;;;;8.33;7.33;;;;;-147.47;100.00;64613.53;5073404;27;46921;-78
2023/04/23 08:07:42;;;;;;;;;9.67;7.33;;;;;-147.47;100.00;64613.53;5088475;27;46279;-79
2023/04/23 08:10:17;;;;;;;;;9.67;9.33;;;;;-147.47;100.00;64613.53;5088492;27;45658;-78
2023/04/23 08:12:46;;;;;;;;;9.00;9.00;;;;;-147.47;100.00;64613.53;5070462;27;46160;-79
2023/04/23 08:15:21;;;;;;;;;7.67;7.33;;;;;-147.47;100.00;64613.53;5087615;27;45506;-80
2023/04/23 08:17:47;;;;;;;;;9.67;9.00;;;;;-147.47;100.00;64613.53;5066411;27;45720;-81
2023/04/23 08:20:16;;;;;;;;;8.00;8.00;;;;;-147.47;100.00;64613.53;5090044;27;45688;-80
2023/04/23 08:22:45;;;;;;;;;10.00;8.00;;;;;-147.47;100.00;64613.53;5090304;27;45788;-79
2023/04/23 08:25:28;;;;;;;;;;;;;;;;;;;;;
2023/04/23 08:27:58;;;;;;;;;10.00;9.00;;;;;-147.47;100.00;64613.53;5090467;27;72339;-80
2023/04/23 08:30:41;;;;;;;;;8.67;7.67;;;;;-147.47;100.00;64613.53;5090642;27;46534;-81
2023/04/23 08:33:07;;;;;;;;;7.33;5.00;;;;;-147.47;100.00;64613.53;5078271;27;45616;-80
2023/04/23 08:35:38;;;;;;;;;9.00;7.00;;;;;-147.47;100.00;64613.53;5090687;27;45735;-80
2023/04/23 08:38:03;;;;;;;;;9.00;8.00;;;;;-147.47;100.00;64613.53;5091900;27;45373;-79
2023/04/23 08:40:31;;;;;;;;;13.00;9.67;;;;;-147.47;100.00;64613.53;5097869;27;45512;-86
2023/04/23 08:43:10;;;;;;;;;7.67;7.00;;;;;-147.47;100.00;64613.53;5108305;27;45333;-85
2023/04/23 08:45:49;;;;;;;;;4.67;4.67;;;;;-147.47;100.00;64613.53;5101367;27;45241;-84
2023/04/23 08:48:15;;;;;;;;;7.33;7.33;;;;;-147.47;100.00;64613.53;5091687;27;45531;-83
2023/04/23 08:50:45;;;;;;;;;5.33;5.33;;;;;-147.47;100.00;64613.53;5083989;27;45366;-81
2023/04/23 08:53:20;;;;;;;;;6.33;4.67;;;;;-147.47;100.00;64613.53;5085815;27;46401;-78
2023/04/23 08:55:49;;;;;;;;;8.00;8.00;;;;;-147.47;100.00;64613.53;5072603;28;45754;-81
2023/04/23 08:58:15;;;;;;;;;8.00;5.67;;;;;-147.47;100.00;64613.53;5065285;27;45663;-79
2023/04/23 09:00:41;;;;;;;;;8.00;8.00;;;;;-147.47;100.00;64613.53;5082612;27;45485;-78
2023/04/23 09:03:07;;;;;;;;;8.33;7.33;;;;;-147.47;100.00;64613.53;5079521;27;45699;-78
2023/04/23 09:05:33;;;;;;;;;10.67;8.00;;;;;-147.47;100.00;64613.53;5087594;27;47846;-79
2023/04/23 09:07:58;;;;;;;;;11.00;7.67;;;;;-147.47;100.00;64613.53;5091951;27;45827;-80
2023/04/23 09:10:24;;;;;;;;;8.00;7.33;;;;;-147.47;100.00;64613.53;5063595;28;45890;-80
2023/04/23 09:12:50;;;;;;;;;9.67;8.33;;;;;-147.47;100.00;64613.53;5094075;27;45706;-78
2023/04/23 09:15:16;;;;;;;;;9.00;9.00;;;;;-147.47;100.00;64613.53;5100137;27;46209;-75
2023/04/23 09:17:45;;;;;;;;;9.00;7.67;;;;;-147.47;100.00;64613.53;5085787;27;45855;-77
2023/04/23 09:20:12;;;;;;;;;8.33;8.00;;;;;-147.47;100.00;64613.53;5063561;27;45458;-78
2023/04/23 09:23:22;;;;;;;;;9.67;9.00;;;;;-147.47;100.00;64613.53;5090499;27;45728;-79
2023/04/23 09:26:26;;;;;;;;;6.67;4.00;;;;;-147.47;100.00;64613.53;5058047;28;46074;-80
2023/04/23 09:28:55;;;;;;;;;9.67;7.67;;;;;-147.47;100.00;64613.53;5100947;27;45469;-81
2023/04/23 09:31:23;;;;;;;;;8.33;7.33;;;;;-147.47;100.00;64613.53;5095699;27;45398;-82
2023/04/23 09:34:03;;;;;;;;;6.67;4.67;;;;;-147.47;100.00;64613.53;5100020;27;45406;-81
2023/04/23 09:36:30;;;;;;;;;4.00;3.33;;;;;-147.47;100.00;64613.53;5080257;28;45714;-81
2023/04/23 09:38:58;;;;;;;;;5.67;5.67;;;;;-147.47;100.00;64613.53;5103140;27;44837;-79
2023/04/23 09:41:25;;;;;;;;;8.33;6.67;;;;;-147.47;100.00;64613.53;5103651;27;45383;-82
2023/04/23 09:43:55;;;;;;;;;7.67;5.00;;;;;-147.47;100.00;64613.53;5091511;27;45802;-83
2023/04/23 09:47:10;;;;;;;;;4.67;4.67;;;;;-147.47;100.00;64613.53;5094898;27;47384;-82
2023/04/23 09:49:47;;;;;;;;;3.67;2.33;;;;;-147.47;100.00;64613.53;5077216;27;44840;-84
2023/04/23 09:52:13;;;;;;;;;4.00;4.00;;;;;-147.47;100.00;64613.53;5098686;27;45560;-83
2023/04/23 09:54:39;;;;;;;;;11.33;8.67;;;;;-147.47;100.00;64613.53;5108410;27;45376;-83
2023/04/23 09:57:08;;;;;;;;;6.33;6.00;;;;;-147.47;100.00;64613.53;5084352;27;47331;-82
2023/04/23 09:59:37;;;;;;;;;5.00;5.00;;;;;-147.47;100.00;64613.53;5095478;27;45358;-85
2023/04/23 10:02:06;;;;;;;;;5.33;5.33;;;;;-147.47;100.00;64613.53;5095344;27;45440;-83
2023/04/23 10:04:33;;;;;;;;;10.33;7.33;;;;;-147.47;100.00;64613.53;5108988;27;45839;-83
2023/04/23 10:07:02;;;;;;;;;8.33;6.67;;;;;-147.47;100.00;64613.53;5097647;27;47149;-83
2023/04/23 10:09:28;;;;;;;;;8.00;7.00;;;;;-147.47;100.00;64613.53;5103716;27;45209;-84
2023/04/23 10:12:01;;;;;;;;;6.00;5.67;;;;;-147.47;100.00;64613.53;5106530;27;45484;-83
2023/04/23 10:14:28;;;;;;;;;7.33;6.33;;;;;-147.47;100.00;64613.53;5084595;27;45554;-86
2023/04/23 10:16:59;;;;;;;;;7.00;5.00;;;;;-147.47;100.00;64613.53;5080141;27;45842;-86
2023/04/23 10:19:26;;;;;;;;;1.00;1.00;;;;;-147.47;100.00;64613.53;5094364;27;45475;-84
2023/04/23 10:22:03;;;;;;;;;6.33;4.33;;;;;-147.47;100.00;64613.53;5108868;27;45327;-85
2023/04/23 10:24:32;;;;;;;;;5.67;4.00;;;;;-147.47;100.00;64613.53;5095881;27;45878;-85
2023/04/23 10:27:01;;;;;;;;;7.33;6.33;;;;;-147.47;100.00;64613.53;5101533;27;45330;-84
2023/04/23 10:29:31;;;;;;;;;4.00;3.00;;;;;-147.47;100.00;64613.53;5110361;27;45365;-86
2023/04/23 10:31:59;;;;;;;;;4.33;4.33;;;;;-147.47;100.00;64613.53;5092676;27;45469;-85
2023/04/23 10:34:26;;;;;;;;;2.00;2.00;;;;;-147.47;100.00;64613.53;5092974;27;45352;-84
2023/04/23 10:36:58;;;;;;;;;10.00;6.67;;;;;-147.47;100.00;64613.53;5095086;27;45453;-86
2023/04/23 10:39:30;;;;;;;;;1.33;1.33;;;;;-147.47;100.00;64613.53;5089394;27;45546;-86
2023/04/23 10:41:56;;;;;;;;;4.67;3.00;;;;;-147.47;100.00;64613.53;5087746;27;44779;-85
2023/04/23 10:44:21;;;;;;;;;4.00;4.00;;;;;-147.47;100.00;64613.53;5110092;27;45763;-85
2023/04/23 10:46:59;;;;;;;;;7.33;4.33;;;;;-147.47;100.00;64613.53;5092509;27;47174;-85
2023/04/23 10:49:28;;;;;;;;;7.00;7.00;;;;;-147.47;100.00;64613.53;5078455;28;45379;-86
2023/04/23 10:52:02;;;;;;;;;8.00;6.33;;;;;-147.47;100.00;64613.53;5078811;28;46195;-85
2023/04/23 10:54:32;;;;;;;;;5.00;5.00;;;;;-147.47;100.00;64613.53;5073318;28;46104;-85
2023/04/23 10:57:03;;;;;;;;;9.33;8.00;;;;;-147.47;100.00;64613.53;5103473;27;45451;-86
2023/04/23 10:59:30;;;;;;;;;5.00;5.00;;;;;-147.47;100.00;64613.53;5111933;27;45356;-86
2023/04/23 11:01:58;;;;;;;;;2.00;2.00;;;;;-147.47;100.00;64613.53;5110740;27;45561;-87
2023/04/23 11:04:32;;;;;;;;;4.00;3.00;;;;;-147.47;100.00;64613.53;5090825;27;44894;-85
2023/04/23 11:07:10;;;;;;;;;4.67;4.67;;;;;-147.47;100.00;64613.53;5106707;27;46223;-85
2023/04/23 11:09:47;;;;;;;;;7.00;6.33;;;;;-147.47;100.00;64613.53;5087084;27;45295;-85
2023/04/23 11:12:31;;;;;;;;;3.33;3.33;;;;;-147.47;100.00;64613.53;5109791;27;45715;-85